Washington, DC (20040)

12:42 PM EST on March 03, 2015 (GMT -0500)
Glaizewood Manor | Change Station
CLOSE
Current Station
Personal Weather Station
Location: Takoma Park, MD
Elevation: 175 ft
Nearby Weather Stations
Active Advisory: Winter Weather Advisory Active Notice: Public Information Statement

Elev 175 ft 38.98 °N, 76.99 °W | Updated 1 second ago

Overcast
Overcast
33.5 °F
Feels Like 34 °F
N
2.0
Wind Variable Wind from SSE
Gusts 5.0 mph

Today
High -- | Low -- °F
--% Chance of Precip.
Yesterday
High -- | Low -- °F
Precip. -- in
6:38 AM 6:02 PM
Waxing Gibbous, 96% visible
Pressure 30.35 in
Visibility 10.0 miles
Clouds Mostly Cloudy 4200 ft
Mostly Cloudy 9000 ft
Windchill 34 °F
Dew Point 22 °F
Humidity 63%
Rainfall 0.00 in
Snow Depth Not available.
UV 3 out of 12
Pollen 2.70 out of 12
Air Quality Not available.
Flu Activity Not available.
METAR KCGS 031715Z AUTO 14008KT 10SM BKN042 BKN090 01/M08 A3035 RMK AO1

More Conditions Fewer Conditions

Pressure 30.35 in
Visibility 10.0 miles
Clouds Mostly Cloudy 4200 ft
Mostly Cloudy 9000 ft
Windchill 34 °F
Dew Point 22 °F
Humidity 63%
Rainfall 0.00 in
Snow Depth Not available.
UV 3 out of 12
Pollen 2.70 out of 12
Air Quality Not available.
Flu Activity Not available.
METAR KCGS 031715Z AUTO 14008KT 10SM BKN042 BKN090 01/M08 A3035 RMK AO1

More Conditions Fewer Conditions

10-Day Weather Forecast

Almanac

Astronomy

Mar. 03, 2015 Rise Set
Actual Time
Civil Twilight
Nautical Twilight
Astronomical Twilight
Moon
Length of Visible Light
Length of Day
Tomorrow will be .
, % of the Moon is Illuminated

Today's Extremes

State Highs State Lows

Community

WunderPhotos

Upload Photos

1,802,186 photos uploaded!

WunderBlogs® & News

Nearby

Air Quality

  Air Quality AQ Index Pollutant
Not available.

Snow Depth

Station Depth Elevation

Earthquake Activity

City Distance Mag. Time & Date
Minimum magnitude displayed is 2.5.

Coastal Water Temperatures

Place Temperature

Nearby Weather Stations

Winter Weather Advisory
Statement as of 4:54 AM EST on March 03, 2015

... Winter Weather Advisory remains in effect from noon today to
10 PM EST this evening...

* locations... the Baltimore and Washington metropolitan areas
and north central Maryland.

* Hazard types... snow... sleet and freezing rain.

* Accumulations... generally up to half inch snow and sleet and
less than one tenth inch ice... up to one inch snow and tenth inch
of ice near the Mason-Dixon line.

* Timing... midday today through late this evening.

* Impacts... roads likely snow and ice covered... more likely
north of Washington DC. Traveling will be dangerous.

* Winds... southeast 5 to 15 mph.

* Temperatures... in the mid to upper 20s... slowly rising into
the 30s.

Precautionary/preparedness actions...

A Winter Weather Advisory means that periods of snow... sleet... or
freezing rain will cause travel difficulties. Be prepared for
slippery roads and limited visibilities... and use caution while
driving.